sensor_id;sensor_type;location;lat;lon;timestamp;P1;durP1;ratioP1;P2;durP2;ratioP2
60975;SDS011;46849;48.154;17.042;2023-01-04T00:01:35;5.95;;;3.15;;
60975;SDS011;46849;48.154;17.042;2023-01-04T00:04:20;4.68;;;3.33;;
60975;SDS011;46849;48.154;17.042;2023-01-04T00:07:05;7.35;;;3.83;;
60975;SDS011;46849;48.154;17.042;2023-01-04T00:09:51;5.22;;;3.50;;
60975;SDS011;46849;48.154;17.042;2023-01-04T00:12:36;6.97;;;4.65;;
60975;SDS011;46849;48.154;17.042;2023-01-04T00:15:21;5.28;;;4.00;;
60975;SDS011;46849;48.154;17.042;2023-01-04T00:18:05;5.82;;;4.18;;
60975;SDS011;46849;48.154;17.042;2023-01-04T00:20:50;5.68;;;3.50;;
60975;SDS011;46849;48.154;17.042;2023-01-04T00:23:35;5.78;;;4.10;;
60975;SDS011;46849;48.154;17.042;2023-01-04T00:26:22;4.85;;;3.65;;
60975;SDS011;46849;48.154;17.042;2023-01-04T00:29:08;6.82;;;4.07;;
60975;SDS011;46849;48.154;17.042;2023-01-04T00:31:55;6.07;;;4.53;;
60975;SDS011;46849;48.154;17.042;2023-01-04T00:34:40;7.57;;;5.15;;
60975;SDS011;46849;48.154;17.042;2023-01-04T00:37:24;6.78;;;4.20;;
60975;SDS011;46849;48.154;17.042;2023-01-04T00:40:09;6.60;;;3.63;;
60975;SDS011;46849;48.154;17.042;2023-01-04T00:42:54;7.55;;;4.78;;
60975;SDS011;46849;48.154;17.042;2023-01-04T00:45:39;6.00;;;4.10;;
60975;SDS011;46849;48.154;17.042;2023-01-04T00:48:27;7.43;;;3.83;;
60975;SDS011;46849;48.154;17.042;2023-01-04T00:51:11;6.43;;;4.50;;
60975;SDS011;46849;48.154;17.042;2023-01-04T00:53:57;6.35;;;4.38;;
60975;SDS011;46849;48.154;17.042;2023-01-04T00:56:44;8.05;;;3.75;;
60975;SDS011;46849;48.154;17.042;2023-01-04T00:59:29;5.13;;;3.65;;
60975;SDS011;46849;48.154;17.042;2023-01-04T01:02:13;5.75;;;4.13;;
60975;SDS011;46849;48.154;17.042;2023-01-04T01:04:58;5.90;;;3.63;;
60975;SDS011;46849;48.154;17.042;2023-01-04T01:07:42;5.05;;;3.42;;
60975;SDS011;46849;48.154;17.042;2023-01-04T01:10:27;5.22;;;3.40;;
60975;SDS011;46849;48.154;17.042;2023-01-04T01:13:12;5.07;;;3.33;;
60975;SDS011;46849;48.154;17.042;2023-01-04T01:16:07;5.20;;;3.05;;
60975;SDS011;46849;48.154;17.042;2023-01-04T01:18:54;4.65;;;2.95;;
60975;SDS011;46849;48.154;17.042;2023-01-04T01:21:38;4.50;;;3.00;;
60975;SDS011;46849;48.154;17.042;2023-01-04T01:24:23;7.60;;;4.75;;
60975;SDS011;46849;48.154;17.042;2023-01-04T01:27:08;5.15;;;3.20;;
60975;SDS011;46849;48.154;17.042;2023-01-04T01:29:53;4.53;;;2.88;;
60975;SDS011;46849;48.154;17.042;2023-01-04T01:32:37;5.80;;;3.58;;
60975;SDS011;46849;48.154;17.042;2023-01-04T01:35:22;7.80;;;5.05;;
60975;SDS011;46849;48.154;17.042;2023-01-04T01:38:06;6.53;;;3.83;;
60975;SDS011;46849;48.154;17.042;2023-01-04T01:40:51;5.40;;;3.60;;
60975;SDS011;46849;48.154;17.042;2023-01-04T01:46:46;4.95;;;3.28;;
60975;SDS011;46849;48.154;17.042;2023-01-04T01:49:34;6.47;;;3.78;;
60975;SDS011;46849;48.154;17.042;2023-01-04T01:52:24;5.30;;;3.42;;
60975;SDS011;46849;48.154;17.042;2023-01-04T01:55:13;5.32;;;3.60;;
60975;SDS011;46849;48.154;17.042;2023-01-04T01:58:00;5.63;;;4.00;;
60975;SDS011;46849;48.154;17.042;2023-01-04T02:00:46;7.78;;;4.80;;
60975;SDS011;46849;48.154;17.042;2023-01-04T02:03:32;5.13;;;3.58;;
60975;SDS011;46849;48.154;17.042;2023-01-04T02:06:21;5.90;;;3.25;;
60975;SDS011;46849;48.154;17.042;2023-01-04T02:09:10;6.75;;;4.30;;
60975;SDS011;46849;48.154;17.042;2023-01-04T02:11:55;6.28;;;3.42;;
60975;SDS011;46849;48.154;17.042;2023-01-04T02:14:40;4.50;;;3.10;;
60975;SDS011;46849;48.154;17.042;2023-01-04T02:17:35;5.18;;;3.25;;
60975;SDS011;46849;48.154;17.042;2023-01-04T02:30:38;5.72;;;3.78;;
60975;SDS011;46849;48.154;17.042;2023-01-04T02:33:26;5.43;;;3.20;;
60975;SDS011;46849;48.154;17.042;2023-01-04T02:45:46;5.90;;;3.38;;
60975;SDS011;46849;48.154;17.042;2023-01-04T02:48:39;4.25;;;3.15;;
60975;SDS011;46849;48.154;17.042;2023-01-04T02:51:43;6.80;;;4.20;;
60975;SDS011;46849;48.154;17.042;2023-01-04T02:54:29;3.83;;;2.60;;
60975;SDS011;46849;48.154;17.042;2023-01-04T02:57:38;3.92;;;2.60;;
60975;SDS011;46849;48.154;17.042;2023-01-04T03:00:35;5.25;;;3.00;;
60975;SDS011;46849;48.154;17.042;2023-01-04T03:04:02;4.22;;;2.97;;
60975;SDS011;46849;48.154;17.042;2023-01-04T03:07:23;5.55;;;2.90;;
60975;SDS011;46849;48.154;17.042;2023-01-04T03:13:21;4.60;;;2.80;;
60975;SDS011;46849;48.154;17.042;2023-01-04T03:16:12;5.85;;;2.70;;
60975;SDS011;46849;48.154;17.042;2023-01-04T03:19:02;4.97;;;2.72;;
60975;SDS011;46849;48.154;17.042;2023-01-04T03:21:52;4.13;;;2.30;;
60975;SDS011;46849;48.154;17.042;2023-01-04T03:24:37;4.18;;;2.50;;
60975;SDS011;46849;48.154;17.042;2023-01-04T03:27:40;4.30;;;2.65;;
60975;SDS011;46849;48.154;17.042;2023-01-04T03:30:57;3.00;;;2.17;;
60975;SDS011;46849;48.154;17.042;2023-01-04T03:34:05;3.67;;;2.45;;
60975;SDS011;46849;48.154;17.042;2023-01-04T03:40:28;3.92;;;2.38;;
60975;SDS011;46849;48.154;17.042;2023-01-04T03:43:36;6.33;;;2.20;;
60975;SDS011;46849;48.154;17.042;2023-01-04T03:46:48;3.35;;;2.00;;
60975;SDS011;46849;48.154;17.042;2023-01-04T03:49:56;4.22;;;2.20;;
60975;SDS011;46849;48.154;17.042;2023-01-04T03:52:49;3.60;;;2.10;;
60975;SDS011;46849;48.154;17.042;2023-01-04T03:55:36;3.47;;;2.25;;
60975;SDS011;46849;48.154;17.042;2023-01-04T03:58:22;4.03;;;2.10;;
60975;SDS011;46849;48.154;17.042;2023-01-04T04:01:08;3.15;;;1.90;;
60975;SDS011;46849;48.154;17.042;2023-01-04T04:03:53;3.45;;;2.10;;
60975;SDS011;46849;48.154;17.042;2023-01-04T04:06:57;2.58;;;1.63;;
60975;SDS011;46849;48.154;17.042;2023-01-04T04:10:01;2.67;;;1.98;;
60975;SDS011;46849;48.154;17.042;2023-01-04T04:12:45;2.95;;;1.67;;
60975;SDS011;46849;48.154;17.042;2023-01-04T04:15:31;2.70;;;1.73;;
60975;SDS011;46849;48.154;17.042;2023-01-04T04:18:16;3.90;;;2.60;;
60975;SDS011;46849;48.154;17.042;2023-01-04T04:21:00;2.78;;;2.00;;
60975;SDS011;46849;48.154;17.042;2023-01-04T04:23:45;3.67;;;1.85;;
60975;SDS011;46849;48.154;17.042;2023-01-04T04:26:30;2.95;;;1.92;;
60975;SDS011;46849;48.154;17.042;2023-01-04T04:29:14;4.03;;;1.80;;
60975;SDS011;46849;48.154;17.042;2023-01-04T04:31:59;3.05;;;1.42;;
60975;SDS011;46849;48.154;17.042;2023-01-04T04:34:44;2.67;;;2.00;;
60975;SDS011;46849;48.154;17.042;2023-01-04T04:37:28;3.15;;;1.58;;
60975;SDS011;46849;48.154;17.042;2023-01-04T04:40:15;3.13;;;1.75;;
60975;SDS011;46849;48.154;17.042;2023-01-04T04:43:22;3.22;;;1.48;;
60975;SDS011;46849;48.154;17.042;2023-01-04T04:46:07;2.40;;;1.42;;
60975;SDS011;46849;48.154;17.042;2023-01-04T04:48:52;3.33;;;1.95;;
60975;SDS011;46849;48.154;17.042;2023-01-04T04:51:37;3.88;;;2.05;;
60975;SDS011;46849;48.154;17.042;2023-01-04T04:54:21;2.75;;;1.63;;
60975;SDS011;46849;48.154;17.042;2023-01-04T04:57:06;3.17;;;1.73;;
60975;SDS011;46849;48.154;17.042;2023-01-04T04:59:51;4.65;;;2.38;;
60975;SDS011;46849;48.154;17.042;2023-01-04T05:02:36;2.58;;;1.75;;
60975;SDS011;46849;48.154;17.042;2023-01-04T05:05:20;4.13;;;2.15;;
60975;SDS011;46849;48.154;17.042;2023-01-04T05:08:05;2.83;;;1.67;;
60975;SDS011;46849;48.154;17.042;2023-01-04T05:10:50;2.58;;;1.67;;
60975;SDS011;46849;48.154;17.042;2023-01-04T05:13:34;2.90;;;1.48;;
60975;SDS011;46849;48.154;17.042;2023-01-04T05:16:19;2.05;;;1.40;;
60975;SDS011;46849;48.154;17.042;2023-01-04T05:19:04;3.20;;;1.67;;
60975;SDS011;46849;48.154;17.042;2023-01-04T05:21:48;4.18;;;2.25;;
60975;SDS011;46849;48.154;17.042;2023-01-04T05:24:33;2.35;;;1.70;;
60975;SDS011;46849;48.154;17.042;2023-01-04T05:27:18;2.60;;;1.40;;
60975;SDS011;46849;48.154;17.042;2023-01-04T05:30:03;2.10;;;1.38;;
60975;SDS011;46849;48.154;17.042;2023-01-04T05:33:07;2.95;;;1.42;;
60975;SDS011;46849;48.154;17.042;2023-01-04T05:35:52;4.03;;;2.08;;
60975;SDS011;46849;48.154;17.042;2023-01-04T05:38:37;4.45;;;2.13;;
60975;SDS011;46849;48.154;17.042;2023-01-04T05:41:22;2.53;;;1.63;;
60975;SDS011;46849;48.154;17.042;2023-01-04T05:44:25;6.50;;;3.03;;
60975;SDS011;46849;48.154;17.042;2023-01-04T05:47:09;8.88;;;2.53;;
60975;SDS011;46849;48.154;17.042;2023-01-04T05:49:54;6.13;;;2.78;;
60975;SDS011;46849;48.154;17.042;2023-01-04T05:52:38;5.00;;;2.35;;
60975;SDS011;46849;48.154;17.042;2023-01-04T05:55:23;8.02;;;3.15;;
60975;SDS011;46849;48.154;17.042;2023-01-04T05:58:08;8.00;;;3.13;;
60975;SDS011;46849;48.154;17.042;2023-01-04T06:00:52;7.32;;;2.97;;
60975;SDS011;46849;48.154;17.042;2023-01-04T06:03:37;5.30;;;2.55;;
60975;SDS011;46849;48.154;17.042;2023-01-04T06:06:22;6.50;;;3.22;;
60975;SDS011;46849;48.154;17.042;2023-01-04T06:09:07;4.68;;;2.47;;
60975;SDS011;46849;48.154;17.042;2023-01-04T06:11:52;7.00;;;3.08;;
60975;SDS011;46849;48.154;17.042;2023-01-04T06:14:37;4.72;;;2.90;;
60975;SDS011;46849;48.154;17.042;2023-01-04T06:17:22;4.50;;;2.38;;
60975;SDS011;46849;48.154;17.042;2023-01-04T06:20:07;4.82;;;2.60;;
60975;SDS011;46849;48.154;17.042;2023-01-04T06:22:52;4.97;;;2.92;;
60975;SDS011;46849;48.154;17.042;2023-01-04T06:25:37;7.28;;;3.08;;
60975;SDS011;46849;48.154;17.042;2023-01-04T06:28:22;5.20;;;2.60;;
60975;SDS011;46849;48.154;17.042;2023-01-04T06:31:07;6.15;;;2.65;;
60975;SDS011;46849;48.154;17.042;2023-01-04T06:33:52;4.32;;;2.70;;
60975;SDS011;46849;48.154;17.042;2023-01-04T06:36:37;5.68;;;2.70;;
60975;SDS011;46849;48.154;17.042;2023-01-04T06:39:22;27.75;;;14.63;;
60975;SDS011;46849;48.154;17.042;2023-01-04T06:42:07;14.65;;;8.88;;
60975;SDS011;46849;48.154;17.042;2023-01-04T06:45:14;12.48;;;7.32;;
60975;SDS011;46849;48.154;17.042;2023-01-04T06:47:59;12.02;;;7.00;;
60975;SDS011;46849;48.154;17.042;2023-01-04T06:50:44;10.48;;;6.47;;
60975;SDS011;46849;48.154;17.042;2023-01-04T06:53:29;11.07;;;6.03;;
60975;SDS011;46849;48.154;17.042;2023-01-04T06:56:14;12.48;;;6.50;;
60975;SDS011;46849;48.154;17.042;2023-01-04T06:58:59;10.45;;;6.50;;
60975;SDS011;46849;48.154;17.042;2023-01-04T07:01:43;11.13;;;6.88;;
60975;SDS011;46849;48.154;17.042;2023-01-04T07:04:28;11.18;;;6.40;;
60975;SDS011;46849;48.154;17.042;2023-01-04T07:07:13;7.70;;;5.45;;
60975;SDS011;46849;48.154;17.042;2023-01-04T07:09:58;9.18;;;5.72;;
60975;SDS011;46849;48.154;17.042;2023-01-04T07:12:42;10.63;;;6.28;;
60975;SDS011;46849;48.154;17.042;2023-01-04T07:15:28;8.70;;;5.85;;
60975;SDS011;46849;48.154;17.042;2023-01-04T07:18:12;10.70;;;5.97;;
60975;SDS011;46849;48.154;17.042;2023-01-04T07:20:57;9.15;;;5.07;;
60975;SDS011;46849;48.154;17.042;2023-01-04T07:23:41;8.43;;;5.70;;
60975;SDS011;46849;48.154;17.042;2023-01-04T07:26:27;9.95;;;5.82;;
60975;SDS011;46849;48.154;17.042;2023-01-04T07:29:12;9.90;;;5.28;;
60975;SDS011;46849;48.154;17.042;2023-01-04T07:31:58;8.82;;;5.38;;
60975;SDS011;46849;48.154;17.042;2023-01-04T07:34:43;9.45;;;5.55;;
60975;SDS011;46849;48.154;17.042;2023-01-04T07:37:28;8.93;;;5.45;;
60975;SDS011;46849;48.154;17.042;2023-01-04T07:40:12;11.38;;;6.50;;
60975;SDS011;46849;48.154;17.042;2023-01-04T07:42:57;7.82;;;4.85;;
60975;SDS011;46849;48.154;17.042;2023-01-04T07:45:42;7.65;;;4.80;;
60975;SDS011;46849;48.154;17.042;2023-01-04T07:48:27;7.22;;;4.47;;
60975;SDS011;46849;48.154;17.042;2023-01-04T07:51:12;7.93;;;5.13;;
60975;SDS011;46849;48.154;17.042;2023-01-04T07:53:57;8.73;;;4.88;;
60975;SDS011;46849;48.154;17.042;2023-01-04T07:56:45;8.00;;;5.07;;
60975;SDS011;46849;48.154;17.042;2023-01-04T07:59:31;6.38;;;4.47;;
60975;SDS011;46849;48.154;17.042;2023-01-04T08:02:15;7.80;;;4.68;;
60975;SDS011;46849;48.154;17.042;2023-01-04T08:05:00;8.70;;;5.20;;
60975;SDS011;46849;48.154;17.042;2023-01-04T08:07:45;9.77;;;5.00;;
60975;SDS011;46849;48.154;17.042;2023-01-04T08:10:30;8.02;;;5.43;;
60975;SDS011;46849;48.154;17.042;2023-01-04T08:13:14;8.05;;;5.28;;
60975;SDS011;46849;48.154;17.042;2023-01-04T08:15:59;8.73;;;5.70;;
60975;SDS011;46849;48.154;17.042;2023-01-04T08:18:44;9.30;;;5.50;;
60975;SDS011;46849;48.154;17.042;2023-01-04T08:21:29;8.05;;;4.78;;
60975;SDS011;46849;48.154;17.042;2023-01-04T08:24:16;10.88;;;6.60;;
60975;SDS011;46849;48.154;17.042;2023-01-04T08:27:02;10.68;;;5.82;;
60975;SDS011;46849;48.154;17.042;2023-01-04T08:29:46;12.02;;;7.30;;
60975;SDS011;46849;48.154;17.042;2023-01-04T08:32:31;9.60;;;6.32;;
60975;SDS011;46849;48.154;17.042;2023-01-04T08:35:16;10.00;;;5.60;;
60975;SDS011;46849;48.154;17.042;2023-01-04T08:38:00;9.77;;;5.65;;
60975;SDS011;46849;48.154;17.042;2023-01-04T08:40:45;7.30;;;4.43;;
60975;SDS011;46849;48.154;17.042;2023-01-04T08:43:30;9.95;;;5.72;;
60975;SDS011;46849;48.154;17.042;2023-01-04T08:46:14;9.60;;;6.45;;
60975;SDS011;46849;48.154;17.042;2023-01-04T08:48:59;10.23;;;6.20;;
60975;SDS011;46849;48.154;17.042;2023-01-04T08:51:44;9.20;;;5.78;;
60975;SDS011;46849;48.154;17.042;2023-01-04T08:54:29;5.97;;;3.80;;
60975;SDS011;46849;48.154;17.042;2023-01-04T08:57:17;5.03;;;3.13;;
60975;SDS011;46849;48.154;17.042;2023-01-04T09:00:02;8.75;;;5.63;;
60975;SDS011;46849;48.154;17.042;2023-01-04T09:02:48;5.82;;;3.53;;
60975;SDS011;46849;48.154;17.042;2023-01-04T09:05:32;4.93;;;3.03;;
60975;SDS011;46849;48.154;17.042;2023-01-04T09:08:17;9.13;;;5.80;;
60975;SDS011;46849;48.154;17.042;2023-01-04T09:11:03;6.70;;;4.10;;
60975;SDS011;46849;48.154;17.042;2023-01-04T09:13:52;9.95;;;5.78;;
60975;SDS011;46849;48.154;17.042;2023-01-04T09:16:39;7.20;;;5.10;;
60975;SDS011;46849;48.154;17.042;2023-01-04T09:19:24;7.25;;;5.05;;
60975;SDS011;46849;48.154;17.042;2023-01-04T09:22:13;9.15;;;5.80;;
60975;SDS011;46849;48.154;17.042;2023-01-04T09:24:58;6.38;;;3.65;;
60975;SDS011;46849;48.154;17.042;2023-01-04T09:27:43;7.05;;;3.72;;
60975;SDS011;46849;48.154;17.042;2023-01-04T09:30:27;5.40;;;3.65;;
60975;SDS011;46849;48.154;17.042;2023-01-04T09:33:14;6.00;;;3.15;;
60975;SDS011;46849;48.154;17.042;2023-01-04T09:36:00;6.47;;;3.97;;
60975;SDS011;46849;48.154;17.042;2023-01-04T09:38:48;6.53;;;4.28;;
60975;SDS011;46849;48.154;17.042;2023-01-04T09:41:36;5.80;;;3.88;;
60975;SDS011;46849;48.154;17.042;2023-01-04T09:47:33;6.13;;;2.45;;
60975;SDS011;46849;48.154;17.042;2023-01-04T09:50:32;6.10;;;4.00;;
60975;SDS011;46849;48.154;17.042;2023-01-04T09:53:27;4.88;;;3.72;;
60975;SDS011;46849;48.154;17.042;2023-01-04T09:59:14;4.68;;;2.65;;
60975;SDS011;46849;48.154;17.042;2023-01-04T10:02:11;5.20;;;3.30;;
60975;SDS011;46849;48.154;17.042;2023-01-04T10:05:00;2.35;;;1.52;;
60975;SDS011;46849;48.154;17.042;2023-01-04T10:07:47;5.10;;;3.65;;
60975;SDS011;46849;48.154;17.042;2023-01-04T10:16:47;6.50;;;4.10;;
60975;SDS011;46849;48.154;17.042;2023-01-04T10:22:53;6.95;;;4.53;;
60975;SDS011;46849;48.154;17.042;2023-01-04T10:26:46;6.78;;;4.30;;
60975;SDS011;46849;48.154;17.042;2023-01-04T10:32:40;7.80;;;4.68;;
60975;SDS011;46849;48.154;17.042;2023-01-04T10:35:26;10.25;;;5.18;;
60975;SDS011;46849;48.154;17.042;2023-01-04T10:38:16;6.03;;;4.15;;
60975;SDS011;46849;48.154;17.042;2023-01-04T10:41:06;7.30;;;4.10;;
60975;SDS011;46849;48.154;17.042;2023-01-04T10:50:17;7.28;;;4.85;;
60975;SDS011;46849;48.154;17.042;2023-01-04T10:53:03;8.07;;;4.25;;
60975;SDS011;46849;48.154;17.042;2023-01-04T10:55:59;9.50;;;4.72;;
60975;SDS011;46849;48.154;17.042;2023-01-04T11:02:14;7.63;;;5.18;;
60975;SDS011;46849;48.154;17.042;2023-01-04T11:05:10;11.00;;;7.20;;
60975;SDS011;46849;48.154;17.042;2023-01-04T11:08:02;8.63;;;5.60;;
60975;SDS011;46849;48.154;17.042;2023-01-04T11:10:58;7.60;;;4.93;;
60975;SDS011;46849;48.154;17.042;2023-01-04T11:13:47;6.13;;;4.25;;
60975;SDS011;46849;48.154;17.042;2023-01-04T11:16:33;7.47;;;4.30;;
60975;SDS011;46849;48.154;17.042;2023-01-04T11:19:18;7.78;;;4.03;;
60975;SDS011;46849;48.154;17.042;2023-01-04T11:25:14;5.53;;;3.67;;
60975;SDS011;46849;48.154;17.042;2023-01-04T11:28:13;5.45;;;3.50;;
60975;SDS011;46849;48.154;17.042;2023-01-04T11:36:43;4.70;;;3.15;;
60975;SDS011;46849;48.154;17.042;2023-01-04T11:39:29;6.80;;;3.97;;
60975;SDS011;46849;48.154;17.042;2023-01-04T11:42:22;6.47;;;4.07;;
60975;SDS011;46849;48.154;17.042;2023-01-04T11:45:16;6.95;;;3.88;;
60975;SDS011;46849;48.154;17.042;2023-01-04T11:48:04;8.25;;;4.72;;
60975;SDS011;46849;48.154;17.042;2023-01-04T11:50:49;7.38;;;4.45;;
60975;SDS011;46849;48.154;17.042;2023-01-04T11:53:39;8.82;;;4.38;;
60975;SDS011;46849;48.154;17.042;2023-01-04T11:56:23;7.90;;;3.80;;
60975;SDS011;46849;48.154;17.042;2023-01-04T12:05:15;5.35;;;3.47;;
60975;SDS011;46849;48.154;17.042;2023-01-04T12:08:03;4.93;;;3.70;;
60975;SDS011;46849;48.154;17.042;2023-01-04T12:10:48;6.22;;;5.00;;
60975;SDS011;46849;48.154;17.042;2023-01-04T12:13:32;7.78;;;5.45;;
60975;SDS011;46849;48.154;17.042;2023-01-04T12:16:25;7.35;;;5.15;;
60975;SDS011;46849;48.154;17.042;2023-01-04T12:19:26;10.40;;;6.82;;
60975;SDS011;46849;48.154;17.042;2023-01-04T12:31:37;11.68;;;7.32;;
60975;SDS011;46849;48.154;17.042;2023-01-04T12:37:06;13.02;;;7.95;;
60975;SDS011;46849;48.154;17.042;2023-01-04T12:39:51;11.82;;;8.07;;
60975;SDS011;46849;48.154;17.042;2023-01-04T12:42:36;13.73;;;8.55;;
60975;SDS011;46849;48.154;17.042;2023-01-04T12:45:21;17.63;;;8.98;;
60975;SDS011;46849;48.154;17.042;2023-01-04T12:51:31;12.80;;;8.63;;
60975;SDS011;46849;48.154;17.042;2023-01-04T12:54:23;11.32;;;7.55;;
60975;SDS011;46849;48.154;17.042;2023-01-04T13:06:02;13.95;;;9.35;;
60975;SDS011;46849;48.154;17.042;2023-01-04T13:08:49;13.57;;;8.65;;
60975;SDS011;46849;48.154;17.042;2023-01-04T13:14:49;19.30;;;11.38;;
60975;SDS011;46849;48.154;17.042;2023-01-04T13:17:38;19.30;;;11.02;;
60975;SDS011;46849;48.154;17.042;2023-01-04T13:20:24;18.60;;;11.55;;
60975;SDS011;46849;48.154;17.042;2023-01-04T13:23:12;18.45;;;10.95;;
60975;SDS011;46849;48.154;17.042;2023-01-04T13:26:25;18.63;;;11.55;;
60975;SDS011;46849;48.154;17.042;2023-01-04T13:35:12;21.17;;;12.07;;
60975;SDS011;46849;48.154;17.042;2023-01-04T13:37:58;22.42;;;11.52;;
60975;SDS011;46849;48.154;17.042;2023-01-04T13:40:44;24.75;;;12.93;;
60975;SDS011;46849;48.154;17.042;2023-01-04T13:46:36;24.85;;;13.30;;
60975;SDS011;46849;48.154;17.042;2023-01-04T13:49:26;21.58;;;13.15;;
60975;SDS011;46849;48.154;17.042;2023-01-04T13:58:15;22.85;;;14.95;;
60975;SDS011;46849;48.154;17.042;2023-01-04T14:01:44;20.85;;;12.25;;
60975;SDS011;46849;48.154;17.042;2023-01-04T14:04:26;16.90;;;12.23;;
60975;SDS011;46849;48.154;17.042;2023-01-04T14:07:25;20.75;;;13.95;;
60975;SDS011;46849;48.154;17.042;2023-01-04T14:10:15;21.05;;;12.32;;
60975;SDS011;46849;48.154;17.042;2023-01-04T14:13:02;19.52;;;12.05;;
60975;SDS011;46849;48.154;17.042;2023-01-04T14:16:00;19.83;;;12.77;;
60975;SDS011;46849;48.154;17.042;2023-01-04T14:18:48;20.63;;;12.93;;
60975;SDS011;46849;48.154;17.042;2023-01-04T14:21:34;17.98;;;12.05;;
60975;SDS011;46849;48.154;17.042;2023-01-04T14:24:30;20.27;;;13.65;;
60975;SDS011;46849;48.154;17.042;2023-01-04T14:30:28;19.88;;;13.07;;
60975;SDS011;46849;48.154;17.042;2023-01-04T14:33:19;19.60;;;11.98;;
60975;SDS011;46849;48.154;17.042;2023-01-04T14:36:14;20.17;;;12.27;;
60975;SDS011;46849;48.154;17.042;2023-01-04T14:41:55;23.20;;;14.25;;
60975;SDS011;46849;48.154;17.042;2023-01-04T14:44:41;22.77;;;14.05;;
60975;SDS011;46849;48.154;17.042;2023-01-04T14:47:26;20.95;;;13.88;;
60975;SDS011;46849;48.154;17.042;2023-01-04T14:50:13;20.15;;;13.07;;
60975;SDS011;46849;48.154;17.042;2023-01-04T14:52:59;23.45;;;12.93;;
60975;SDS011;46849;48.154;17.042;2023-01-04T14:55:44;19.05;;;12.88;;
60975;SDS011;46849;48.154;17.042;2023-01-04T14:58:28;21.83;;;13.45;;
60975;SDS011;46849;48.154;17.042;2023-01-04T15:01:13;21.20;;;14.23;;
60975;SDS011;46849;48.154;17.042;2023-01-04T15:03:58;24.60;;;14.68;;
60975;SDS011;46849;48.154;17.042;2023-01-04T15:06:46;22.55;;;13.32;;
60975;SDS011;46849;48.154;17.042;2023-01-04T15:09:33;21.20;;;13.73;;
60975;SDS011;46849;48.154;17.042;2023-01-04T15:12:19;23.92;;;13.93;;
60975;SDS011;46849;48.154;17.042;2023-01-04T15:15:04;26.23;;;15.40;;
60975;SDS011;46849;48.154;17.042;2023-01-04T15:17:49;27.65;;;15.88;;
60975;SDS011;46849;48.154;17.042;2023-01-04T15:20:34;23.95;;;13.60;;
60975;SDS011;46849;48.154;17.042;2023-01-04T15:23:18;23.88;;;14.10;;
60975;SDS011;46849;48.154;17.042;2023-01-04T15:26:04;26.95;;;14.50;;
60975;SDS011;46849;48.154;17.042;2023-01-04T15:28:49;21.65;;;13.73;;
60975;SDS011;46849;48.154;17.042;2023-01-04T15:31:34;23.35;;;14.30;;
60975;SDS011;46849;48.154;17.042;2023-01-04T15:34:20;25.00;;;13.68;;
60975;SDS011;46849;48.154;17.042;2023-01-04T15:37:06;22.63;;;13.30;;
60975;SDS011;46849;48.154;17.042;2023-01-04T15:39:51;20.60;;;12.70;;
60975;SDS011;46849;48.154;17.042;2023-01-04T15:42:36;23.23;;;13.18;;
60975;SDS011;46849;48.154;17.042;2023-01-04T15:45:42;20.33;;;12.77;;
60975;SDS011;46849;48.154;17.042;2023-01-04T15:48:27;21.17;;;13.13;;
60975;SDS011;46849;48.154;17.042;2023-01-04T15:51:11;19.88;;;11.75;;
60975;SDS011;46849;48.154;17.042;2023-01-04T15:53:56;18.60;;;11.35;;
60975;SDS011;46849;48.154;17.042;2023-01-04T15:56:42;18.15;;;11.60;;
60975;SDS011;46849;48.154;17.042;2023-01-04T15:59:27;17.48;;;10.05;;
60975;SDS011;46849;48.154;17.042;2023-01-04T16:02:12;19.15;;;11.48;;
60975;SDS011;46849;48.154;17.042;2023-01-04T16:04:57;17.35;;;10.02;;
60975;SDS011;46849;48.154;17.042;2023-01-04T16:07:42;15.00;;;9.20;;
60975;SDS011;46849;48.154;17.042;2023-01-04T16:10:27;16.65;;;9.57;;
60975;SDS011;46849;48.154;17.042;2023-01-04T16:13:12;13.98;;;8.38;;
60975;SDS011;46849;48.154;17.042;2023-01-04T16:15:59;14.65;;;8.90;;
60975;SDS011;46849;48.154;17.042;2023-01-04T16:18:44;16.40;;;9.52;;
60975;SDS011;46849;48.154;17.042;2023-01-04T16:21:31;17.25;;;9.68;;
60975;SDS011;46849;48.154;17.042;2023-01-04T16:24:15;18.00;;;10.07;;
60975;SDS011;46849;48.154;17.042;2023-01-04T16:27:00;18.55;;;9.82;;
60975;SDS011;46849;48.154;17.042;2023-01-04T16:29:44;13.90;;;8.40;;
60975;SDS011;46849;48.154;17.042;2023-01-04T16:32:29;13.65;;;8.95;;
60975;SDS011;46849;48.154;17.042;2023-01-04T16:35:14;11.10;;;7.93;;
60975;SDS011;46849;48.154;17.042;2023-01-04T16:37:59;14.90;;;8.48;;
60975;SDS011;46849;48.154;17.042;2023-01-04T16:40:44;13.27;;;8.43;;
60975;SDS011;46849;48.154;17.042;2023-01-04T16:43:29;11.82;;;7.53;;
60975;SDS011;46849;48.154;17.042;2023-01-04T16:49:06;17.48;;;10.65;;
60975;SDS011;46849;48.154;17.042;2023-01-04T16:51:53;15.15;;;9.93;;
60975;SDS011;46849;48.154;17.042;2023-01-04T16:54:38;12.57;;;8.73;;
60975;SDS011;46849;48.154;17.042;2023-01-04T16:57:22;15.25;;;9.50;;
60975;SDS011;46849;48.154;17.042;2023-01-04T17:00:07;14.63;;;8.45;;
60975;SDS011;46849;48.154;17.042;2023-01-04T17:02:52;12.55;;;8.48;;
60975;SDS011;46849;48.154;17.042;2023-01-04T17:05:40;11.98;;;8.68;;
60975;SDS011;46849;48.154;17.042;2023-01-04T17:08:25;12.32;;;8.25;;
60975;SDS011;46849;48.154;17.042;2023-01-04T17:11:11;13.40;;;8.27;;
60975;SDS011;46849;48.154;17.042;2023-01-04T17:13:57;12.88;;;7.88;;
60975;SDS011;46849;48.154;17.042;2023-01-04T17:16:42;14.43;;;8.45;;
60975;SDS011;46849;48.154;17.042;2023-01-04T17:19:27;13.35;;;8.70;;
60975;SDS011;46849;48.154;17.042;2023-01-04T17:22:11;13.32;;;8.60;;
60975;SDS011;46849;48.154;17.042;2023-01-04T17:24:56;14.05;;;8.50;;
60975;SDS011;46849;48.154;17.042;2023-01-04T17:27:41;14.48;;;9.15;;
60975;SDS011;46849;48.154;17.042;2023-01-04T17:30:26;13.13;;;8.45;;
60975;SDS011;46849;48.154;17.042;2023-01-04T17:33:10;14.00;;;8.50;;
60975;SDS011;46849;48.154;17.042;2023-01-04T17:35:55;14.85;;;9.18;;
60975;SDS011;46849;48.154;17.042;2023-01-04T17:38:40;17.38;;;10.43;;
60975;SDS011;46849;48.154;17.042;2023-01-04T17:41:26;13.20;;;7.95;;
60975;SDS011;46849;48.154;17.042;2023-01-04T17:44:12;10.75;;;7.78;;
60975;SDS011;46849;48.154;17.042;2023-01-04T17:46:56;11.90;;;7.60;;
60975;SDS011;46849;48.154;17.042;2023-01-04T17:49:41;15.05;;;9.23;;
60975;SDS011;46849;48.154;17.042;2023-01-04T17:52:26;14.25;;;9.45;;
60975;SDS011;46849;48.154;17.042;2023-01-04T17:55:10;17.33;;;9.95;;
60975;SDS011;46849;48.154;17.042;2023-01-04T17:57:55;16.35;;;10.15;;
60975;SDS011;46849;48.154;17.042;2023-01-04T18:03:55;15.00;;;9.02;;
60975;SDS011;46849;48.154;17.042;2023-01-04T18:06:41;16.40;;;9.73;;
60975;SDS011;46849;48.154;17.042;2023-01-04T18:09:26;16.67;;;9.50;;
60975;SDS011;46849;48.154;17.042;2023-01-04T18:12:10;17.88;;;10.07;;
60975;SDS011;46849;48.154;17.042;2023-01-04T18:14:55;14.98;;;9.52;;
60975;SDS011;46849;48.154;17.042;2023-01-04T18:17:40;15.32;;;9.70;;
60975;SDS011;46849;48.154;17.042;2023-01-04T18:20:25;13.02;;;8.55;;
60975;SDS011;46849;48.154;17.042;2023-01-04T18:23:10;12.98;;;8.70;;
60975;SDS011;46849;48.154;17.042;2023-01-04T18:25:54;15.30;;;8.85;;
60975;SDS011;46849;48.154;17.042;2023-01-04T18:28:44;14.05;;;8.85;;
60975;SDS011;46849;48.154;17.042;2023-01-04T18:31:29;13.73;;;8.55;;
60975;SDS011;46849;48.154;17.042;2023-01-04T18:34:15;11.27;;;7.70;;
60975;SDS011;46849;48.154;17.042;2023-01-04T18:37:01;12.60;;;7.72;;